sensor_id;sensor_type;location;lat;lon;timestamp;pressure;altitude;pressure_sealevel;temperature;humidity
41250;BME280;26984;59.928;30.306;2023-08-21T00:00:09;101818.22;;;15.03;100.00
41250;BME280;26984;59.928;30.306;2023-08-21T00:02:39;101817.69;;;14.88;100.00
41250;BME280;26984;59.928;30.306;2023-08-21T00:05:07;101807.13;;;15.04;100.00
41250;BME280;26984;59.928;30.306;2023-08-21T00:07:35;101812.66;;;14.91;100.00
41250;BME280;26984;59.928;30.306;2023-08-21T00:10:05;101816.78;;;14.94;100.00
41250;BME280;26984;59.928;30.306;2023-08-21T00:12:34;101806.63;;;14.82;100.00
41250;BME280;26984;59.928;30.306;2023-08-21T00:15:02;101806.00;;;14.87;100.00
41250;BME280;26984;59.928;30.306;2023-08-21T00:17:30;101809.13;;;14.84;100.00
41250;BME280;26984;59.928;30.306;2023-08-21T00:19:59;101807.69;;;14.81;100.00
41250;BME280;26984;59.928;30.306;2023-08-21T00:22:29;101805.41;;;14.78;100.00
41250;BME280;26984;59.928;30.306;2023-08-21T00:24:56;101811.75;;;14.97;100.00
41250;BME280;26984;59.928;30.306;2023-08-21T00:27:25;101804.34;;;14.79;100.00
41250;BME280;26984;59.928;30.306;2023-08-21T00:29:54;101804.34;;;14.79;100.00
41250;BME280;26984;59.928;30.306;2023-08-21T00:32:22;101812.22;;;14.94;100.00
41250;BME280;26984;59.928;30.306;2023-08-21T00:34:50;101805.22;;;14.73;100.00
41250;BME280;26984;59.928;30.306;2023-08-21T00:37:19;101800.03;;;14.65;100.00
41250;BME280;26984;59.928;30.306;2023-08-21T00:39:47;101803.78;;;14.64;100.00
41250;BME280;26984;59.928;30.306;2023-08-21T00:42:14;101809.97;;;14.84;100.00
41250;BME280;26984;59.928;30.306;2023-08-21T00:44:44;101803.53;;;14.72;100.00
41250;BME280;26984;59.928;30.306;2023-08-21T00:47:11;101803.13;;;14.69;100.00
41250;BME280;26984;59.928;30.306;2023-08-21T00:49:39;101802.72;;;14.65;100.00
41250;BME280;26984;59.928;30.306;2023-08-21T00:52:08;101807.75;;;14.61;100.00
41250;BME280;26984;59.928;30.306;2023-08-21T00:54:38;101801.94;;;14.58;100.00
41250;BME280;26984;59.928;30.306;2023-08-21T00:57:06;101802.72;;;14.72;100.00
41250;BME280;26984;59.928;30.306;2023-08-21T00:59:34;101806.75;;;14.56;100.00
41250;BME280;26984;59.928;30.306;2023-08-21T01:02:03;101801.75;;;14.53;100.00
41250;BME280;26984;59.928;30.306;2023-08-21T01:04:31;101799.47;;;14.50;100.00
41250;BME280;26984;59.928;30.306;2023-08-21T01:06:59;101801.72;;;14.66;100.00
41250;BME280;26984;59.928;30.306;2023-08-21T01:09:33;101796.09;;;14.54;100.00
41250;BME280;26984;59.928;30.306;2023-08-21T01:12:09;101804.22;;;14.54;100.00
41250;BME280;26984;59.928;30.306;2023-08-21T01:14:43;101806.72;;;14.49;100.00
41250;BME280;26984;59.928;30.306;2023-08-21T01:17:15;101789.44;;;14.50;100.00
41250;BME280;26984;59.928;30.306;2023-08-21T01:19:46;101797.56;;;14.50;100.00
41250;BME280;26984;59.928;30.306;2023-08-21T01:22:15;101792.78;;;14.46;100.00
41250;BME280;26984;59.928;30.306;2023-08-21T01:24:45;101795.25;;;14.47;100.00
41250;BME280;26984;59.928;30.306;2023-08-21T01:27:13;101798.00;;;14.41;100.00
41250;BME280;26984;59.928;30.306;2023-08-21T01:29:42;101789.66;;;14.35;100.00
41250;BME280;26984;59.928;30.306;2023-08-21T01:32:23;101795.06;;;14.49;100.00
41250;BME280;26984;59.928;30.306;2023-08-21T01:34:55;101791.53;;;14.48;100.00
41250;BME280;26984;59.928;30.306;2023-08-21T01:37:24;101784.84;;;14.44;100.00
41250;BME280;26984;59.928;30.306;2023-08-21T01:39:53;101790.66;;;14.48;100.00
41250;BME280;26984;59.928;30.306;2023-08-21T01:42:21;101784.63;;;14.46;100.00
41250;BME280;26984;59.928;30.306;2023-08-21T01:44:49;101780.63;;;14.61;100.00
41250;BME280;26984;59.928;30.306;2023-08-21T01:47:17;101784.84;;;14.44;100.00
41250;BME280;26984;59.928;30.306;2023-08-21T01:49:44;101790.06;;;14.59;100.00
41250;BME280;26984;59.928;30.306;2023-08-21T01:52:12;101783.81;;;14.38;100.00
41250;BME280;26984;59.928;30.306;2023-08-21T01:54:40;101787.38;;;14.52;100.00
41250;BME280;26984;59.928;30.306;2023-08-21T01:57:10;101784.06;;;14.30;100.00
41250;BME280;26984;59.928;30.306;2023-08-21T01:59:37;101787.81;;;14.23;100.00
41250;BME280;26984;59.928;30.306;2023-08-21T02:02:05;101781.94;;;14.39;100.00
41250;BME280;26984;59.928;30.306;2023-08-21T02:04:33;101776.63;;;14.12;100.00
41250;BME280;26984;59.928;30.306;2023-08-21T02:07:00;101786.97;;;14.35;100.00
41250;BME280;26984;59.928;30.306;2023-08-21T02:09:28;101778.44;;;14.19;100.00
41250;BME280;26984;59.928;30.306;2023-08-21T02:11:56;101775.88;;;14.37;100.00
41250;BME280;26984;59.928;30.306;2023-08-21T02:14:25;101786.16;;;14.22;100.00
41250;BME280;26984;59.928;30.306;2023-08-21T02:16:53;101769.91;;;14.15;100.00
41250;BME280;26984;59.928;30.306;2023-08-21T02:19:21;101770.75;;;14.16;100.00
41250;BME280;26984;59.928;30.306;2023-08-21T02:21:49;101773.41;;;14.35;100.00
41250;BME280;26984;59.928;30.306;2023-08-21T02:24:16;101776.97;;;14.23;100.00
41250;BME280;26984;59.928;30.306;2023-08-21T02:26:44;101782.41;;;14.23;100.00
41250;BME280;26984;59.928;30.306;2023-08-21T02:29:13;101775.94;;;14.24;100.00
41250;BME280;26984;59.928;30.306;2023-08-21T02:31:44;101776.16;;;14.22;100.00
41250;BME280;26984;59.928;30.306;2023-08-21T02:34:12;101777.44;;;14.20;100.00
41250;BME280;26984;59.928;30.306;2023-08-21T02:36:40;101771.38;;;14.24;100.00
41250;BME280;26984;59.928;30.306;2023-08-21T02:39:08;101774.47;;;14.28;100.00
41250;BME280;26984;59.928;30.306;2023-08-21T02:41:36;101767.81;;;14.30;100.00
41250;BME280;26984;59.928;30.306;2023-08-21T02:44:04;101767.59;;;14.32;100.00
41250;BME280;26984;59.928;30.306;2023-08-21T02:46:32;101762.78;;;14.34;100.00
41250;BME280;26984;59.928;30.306;2023-08-21T02:49:05;101747.34;;;14.34;100.00
41250;BME280;26984;59.928;30.306;2023-08-21T02:51:33;101768.97;;;14.48;100.00
41250;BME280;26984;59.928;30.306;2023-08-21T02:54:01;101758.28;;;14.73;100.00
41250;BME280;26984;59.928;30.306;2023-08-21T02:56:28;101753.13;;;14.58;100.00
41250;BME280;26984;59.928;30.306;2023-08-21T02:58:57;101754.41;;;14.55;100.00
41250;BME280;26984;59.928;30.306;2023-08-21T03:01:24;101754.69;;;14.79;100.00
41250;BME280;26984;59.928;30.306;2023-08-21T03:03:52;101754.34;;;14.62;100.00
41250;BME280;26984;59.928;30.306;2023-08-21T03:06:22;101751.00;;;14.67;100.00
41250;BME280;26984;59.928;30.306;2023-08-21T03:08:50;101747.66;;;14.65;100.00
41250;BME280;26984;59.928;30.306;2023-08-21T03:11:18;101748.69;;;14.70;100.00
41250;BME280;26984;59.928;30.306;2023-08-21T03:13:46;101748.53;;;14.97;100.00
41250;BME280;26984;59.928;30.306;2023-08-21T03:16:14;101749.06;;;14.80;100.00
41250;BME280;26984;59.928;30.306;2023-08-21T03:18:56;101741.28;;;14.91;100.00
41250;BME280;26984;59.928;30.306;2023-08-21T03:21:28;101741.09;;;14.85;100.00
41250;BME280;26984;59.928;30.306;2023-08-21T03:23:58;101738.38;;;14.85;100.00
41250;BME280;26984;59.928;30.306;2023-08-21T03:26:27;101741.31;;;14.84;100.00
41250;BME280;26984;59.928;30.306;2023-08-21T03:28:55;101738.56;;;14.91;100.00
41250;BME280;26984;59.928;30.306;2023-08-21T03:31:23;101738.16;;;15.19;100.00
41250;BME280;26984;59.928;30.306;2023-08-21T03:33:51;101735.75;;;15.04;100.00
41250;BME280;26984;59.928;30.306;2023-08-21T03:36:22;101739.47;;;15.09;100.00
41250;BME280;26984;59.928;30.306;2023-08-21T03:38:59;101736.09;;;15.14;100.00
41250;BME280;26984;59.928;30.306;2023-08-21T03:41:28;101732.31;;;15.15;100.00
41250;BME280;26984;59.928;30.306;2023-08-21T03:43:56;101729.13;;;15.50;100.00
41250;BME280;26984;59.928;30.306;2023-08-21T03:46:25;101729.50;;;15.28;100.00
41250;BME280;26984;59.928;30.306;2023-08-21T03:48:55;101722.16;;;15.36;100.00
41250;BME280;26984;59.928;30.306;2023-08-21T03:51:23;101713.03;;;15.30;100.00
41250;BME280;26984;59.928;30.306;2023-08-21T03:53:51;101718.38;;;15.37;100.00
41250;BME280;26984;59.928;30.306;2023-08-21T03:56:20;101723.75;;;15.68;100.00
41250;BME280;26984;59.928;30.306;2023-08-21T03:58:49;101719.16;;;15.44;100.00
41250;BME280;26984;59.928;30.306;2023-08-21T04:01:17;101718.72;;;15.72;100.00
41250;BME280;26984;59.928;30.306;2023-08-21T04:03:45;101705.13;;;15.47;100.00
41250;BME280;26984;59.928;30.306;2023-08-21T04:06:12;101716.94;;;15.84;100.00
41250;BME280;26984;59.928;30.306;2023-08-21T04:08:40;101698.13;;;15.57;100.00
41250;BME280;26984;59.928;30.306;2023-08-21T04:11:08;101716.44;;;15.94;100.00
41250;BME280;26984;59.928;30.306;2023-08-21T04:13:37;101706.97;;;15.78;100.00
41250;BME280;26984;59.928;30.306;2023-08-21T04:16:05;101708.84;;;15.77;100.00
41250;BME280;26984;59.928;30.306;2023-08-21T04:18:34;101711.50;;;15.84;100.00
41250;BME280;26984;59.928;30.306;2023-08-21T04:21:04;101706.00;;;15.91;100.00
41250;BME280;26984;59.928;30.306;2023-08-21T04:23:32;101704.53;;;16.25;100.00
41250;BME280;26984;59.928;30.306;2023-08-21T04:26:01;101697.09;;;16.02;100.00
41250;BME280;26984;59.928;30.306;2023-08-21T04:28:30;101697.84;;;16.09;100.00
41250;BME280;26984;59.928;30.306;2023-08-21T04:31:00;101706.50;;;16.18;100.00
41250;BME280;26984;59.928;30.306;2023-08-21T04:33:29;101704.16;;;16.21;100.00
41250;BME280;26984;59.928;30.306;2023-08-21T04:35:57;101703.03;;;16.29;100.00
41250;BME280;26984;59.928;30.306;2023-08-21T04:38:25;101697.06;;;16.39;100.00
41250;BME280;26984;59.928;30.306;2023-08-21T04:40:53;101689.50;;;16.41;100.00
41250;BME280;26984;59.928;30.306;2023-08-21T04:43:21;101693.09;;;16.53;100.00
41250;BME280;26984;59.928;30.306;2023-08-21T04:45:51;101688.03;;;16.57;100.00
41250;BME280;26984;59.928;30.306;2023-08-21T04:48:23;101699.19;;;16.67;100.00
41250;BME280;26984;59.928;30.306;2023-08-21T04:50:51;101698.72;;;16.70;100.00
41250;BME280;26984;59.928;30.306;2023-08-21T04:53:19;101694.38;;;17.11;100.00
41250;BME280;26984;59.928;30.306;2023-08-21T04:55:47;101681.63;;;16.81;100.00
41250;BME280;26984;59.928;30.306;2023-08-21T04:58:14;101696.06;;;17.23;100.00
41250;BME280;26984;59.928;30.306;2023-08-21T05:00:44;101695.78;;;17.02;100.00
41250;BME280;26984;59.928;30.306;2023-08-21T05:03:12;101696.38;;;17.04;100.00
41250;BME280;26984;59.928;30.306;2023-08-21T05:05:53;101705.88;;;17.24;100.00
41250;BME280;26984;59.928;30.306;2023-08-21T05:08:23;101698.66;;;17.18;100.00
41250;BME280;26984;59.928;30.306;2023-08-21T05:10:54;101701.63;;;17.29;100.00
41250;BME280;26984;59.928;30.306;2023-08-21T05:13:23;101700.56;;;17.30;100.00
41250;BME280;26984;59.928;30.306;2023-08-21T05:15:52;101696.31;;;17.45;100.00
41250;BME280;26984;59.928;30.306;2023-08-21T05:18:21;101699.03;;;17.57;100.00
41250;BME280;26984;59.928;30.306;2023-08-21T05:20:50;101698.78;;;17.70;100.00
41250;BME280;26984;59.928;30.306;2023-08-21T05:23:19;101699.06;;;17.81;100.00
41250;BME280;26984;59.928;30.306;2023-08-21T05:25:49;101698.81;;;17.94;100.00
41250;BME280;26984;59.928;30.306;2023-08-21T05:28:17;101699.09;;;18.33;100.00
41250;BME280;26984;59.928;30.306;2023-08-21T05:30:46;101699.13;;;18.09;100.00
41250;BME280;26984;59.928;30.306;2023-08-21T05:33:15;101694.28;;;18.11;100.00
41250;BME280;26984;59.928;30.306;2023-08-21T05:35:44;101699.09;;;18.21;100.00
41250;BME280;26984;59.928;30.306;2023-08-21T05:38:12;101691.38;;;18.30;100.00
41250;BME280;26984;59.928;30.306;2023-08-21T05:40:41;101692.41;;;18.40;100.00
41250;BME280;26984;59.928;30.306;2023-08-21T05:43:10;101688.13;;;18.45;100.00
41250;BME280;26984;59.928;30.306;2023-08-21T05:45:41;101683.59;;;18.50;100.00
41250;BME280;26984;59.928;30.306;2023-08-21T05:48:11;101688.53;;;18.53;100.00
41250;BME280;26984;59.928;30.306;2023-08-21T05:50:39;101693.84;;;18.60;100.00
41250;BME280;26984;59.928;30.306;2023-08-21T05:53:07;101692.41;;;18.69;100.00
41250;BME280;26984;59.928;30.306;2023-08-21T05:55:37;101686.00;;;18.75;100.00
41250;BME280;26984;59.928;30.306;2023-08-21T05:58:06;101682.53;;;18.80;100.00
41250;BME280;26984;59.928;30.306;2023-08-21T06:00:34;101679.88;;;18.85;100.00
41250;BME280;26984;59.928;30.306;2023-08-21T06:03:03;101681.63;;;18.91;99.24
41250;BME280;26984;59.928;30.306;2023-08-21T06:06:07;101678.50;;;18.99;99.28
41250;BME280;26984;59.928;30.306;2023-08-21T06:08:35;101671.97;;;19.00;98.78
41250;BME280;26984;59.928;30.306;2023-08-21T06:11:03;101676.44;;;19.06;98.88
41250;BME280;26984;59.928;30.306;2023-08-21T06:13:33;101675.22;;;19.14;98.78
41250;BME280;26984;59.928;30.306;2023-08-21T06:16:02;101662.38;;;19.14;97.41
41250;BME280;26984;59.928;30.306;2023-08-21T06:18:31;101661.03;;;19.17;97.33
41250;BME280;26984;59.928;30.306;2023-08-21T06:20:59;101657.41;;;19.28;96.29
41250;BME280;26984;59.928;30.306;2023-08-21T06:23:27;101656.31;;;19.29;96.19
41250;BME280;26984;59.928;30.306;2023-08-21T06:25:55;101647.13;;;19.35;95.93
41250;BME280;26984;59.928;30.306;2023-08-21T06:28:24;101644.72;;;19.39;94.95
41250;BME280;26984;59.928;30.306;2023-08-21T06:30:57;101649.59;;;19.54;94.61
41250;BME280;26984;59.928;30.306;2023-08-21T06:33:25;101642.72;;;19.51;94.48
41250;BME280;26984;59.928;30.306;2023-08-21T06:35:54;101649.41;;;19.60;93.27
41250;BME280;26984;59.928;30.306;2023-08-21T06:38:22;101645.75;;;19.72;92.22
41250;BME280;26984;59.928;30.306;2023-08-21T06:40:50;101641.75;;;19.79;91.33
41250;BME280;26984;59.928;30.306;2023-08-21T06:43:18;101643.81;;;19.89;90.72
41250;BME280;26984;59.928;30.306;2023-08-21T06:45:49;101640.63;;;19.97;89.85
41250;BME280;26984;59.928;30.306;2023-08-21T06:48:20;101636.91;;;20.08;87.91
41250;BME280;26984;59.928;30.306;2023-08-21T06:50:48;101635.59;;;20.11;87.41
41250;BME280;26984;59.928;30.306;2023-08-21T06:53:15;101638.25;;;20.50;87.14
41250;BME280;26984;59.928;30.306;2023-08-21T06:55:44;101635.84;;;20.31;85.62
41250;BME280;26984;59.928;30.306;2023-08-21T06:58:12;101630.97;;;20.39;85.24
41250;BME280;26984;59.928;30.306;2023-08-21T07:00:40;101632.16;;;20.48;84.31
41250;BME280;26984;59.928;30.306;2023-08-21T07:03:08;101635.22;;;20.51;83.86
41250;BME280;26984;59.928;30.306;2023-08-21T07:05:37;101634.25;;;20.95;83.47
41250;BME280;26984;59.928;30.306;2023-08-21T07:08:05;101630.25;;;20.75;81.75
41250;BME280;26984;59.928;30.306;2023-08-21T07:10:35;101632.22;;;20.80;81.32
41250;BME280;26984;59.928;30.306;2023-08-21T07:13:04;101638.00;;;20.84;80.86
41250;BME280;26984;59.928;30.306;2023-08-21T07:15:32;101630.91;;;20.88;80.38
41250;BME280;26984;59.928;30.306;2023-08-21T07:18:00;101629.59;;;21.27;80.98
41250;BME280;26984;59.928;30.306;2023-08-21T07:23:14;101625.06;;;21.11;79.24
41250;BME280;26984;59.928;30.306;2023-08-21T07:25:42;101627.03;;;21.16;78.41
41250;BME280;26984;59.928;30.306;2023-08-21T07:28:10;101619.41;;;21.23;78.36
41250;BME280;26984;59.928;30.306;2023-08-21T07:30:38;101607.06;;;21.20;77.92
41250;BME280;26984;59.928;30.306;2023-08-21T07:33:06;101618.06;;;21.31;76.28
41250;BME280;26984;59.928;30.306;2023-08-21T07:35:34;101612.34;;;21.32;76.06
41250;BME280;26984;59.928;30.306;2023-08-21T07:38:02;101609.94;;;21.36;75.63
41250;BME280;26984;59.928;30.306;2023-08-21T07:40:32;101606.38;;;21.40;75.54
41250;BME280;26984;59.928;30.306;2023-08-21T07:43:00;101603.94;;;21.44;74.92
41250;BME280;26984;59.928;30.306;2023-08-21T07:45:28;101604.28;;;21.52;72.36
41250;BME280;26984;59.928;30.306;2023-08-21T07:47:55;101597.47;;;21.65;71.60
41250;BME280;26984;59.928;30.306;2023-08-21T07:50:23;101606.69;;;22.12;70.47
41250;BME280;26984;59.928;30.306;2023-08-21T07:52:51;101601.47;;;22.00;69.28
41250;BME280;26984;59.928;30.306;2023-08-21T07:55:19;101597.56;;;21.86;69.74
41250;BME280;26984;59.928;30.306;2023-08-21T07:57:48;101604.41;;;21.83;70.82
41250;BME280;26984;59.928;30.306;2023-08-21T08:00:16;101597.31;;;21.92;70.20
41250;BME280;26984;59.928;30.306;2023-08-21T08:02:44;101598.75;;;22.10;69.96
41250;BME280;26984;59.928;30.306;2023-08-21T08:05:12;101600.50;;;22.52;68.13
41250;BME280;26984;59.928;30.306;2023-08-21T08:07:39;101595.78;;;22.22;68.10
41250;BME280;26984;59.928;30.306;2023-08-21T08:10:07;101581.19;;;22.11;67.32
41250;BME280;26984;59.928;30.306;2023-08-21T08:12:35;101588.38;;;22.22;66.46
41250;BME280;26984;59.928;30.306;2023-08-21T08:15:06;101591.97;;;22.38;65.14
41250;BME280;26984;59.928;30.306;2023-08-21T08:17:34;101575.50;;;22.38;64.21
41250;BME280;26984;59.928;30.306;2023-08-21T08:20:02;101588.69;;;22.52;64.01
41250;BME280;26984;59.928;30.306;2023-08-21T08:22:32;101582.94;;;22.53;64.52
41250;BME280;26984;59.928;30.306;2023-08-21T08:25:00;101581.53;;;22.51;64.00
41250;BME280;26984;59.928;30.306;2023-08-21T08:27:28;101588.16;;;22.50;64.20
41250;BME280;26984;59.928;30.306;2023-08-21T08:29:56;101568.63;;;22.41;63.26
41250;BME280;26984;59.928;30.306;2023-08-21T08:32:25;101574.13;;;22.36;63.96
41250;BME280;26984;59.928;30.306;2023-08-21T08:34:53;101553.53;;;22.28;64.37
41250;BME280;26984;59.928;30.306;2023-08-21T08:37:21;101569.47;;;22.52;64.44
41250;BME280;26984;59.928;30.306;2023-08-21T08:39:49;101577.72;;;22.62;63.00
41250;BME280;26984;59.928;30.306;2023-08-21T08:42:17;101558.22;;;22.68;61.88
41250;BME280;26984;59.928;30.306;2023-08-21T08:44:47;101569.75;;;22.70;61.47
41250;BME280;26984;59.928;30.306;2023-08-21T08:47:15;101567.00;;;22.76;61.57
41250;BME280;26984;59.928;30.306;2023-08-21T08:49:47;101559.03;;;22.89;60.93
41250;BME280;26984;59.928;30.306;2023-08-21T08:52:16;101556.28;;;22.89;58.45
41250;BME280;26984;59.928;30.306;2023-08-21T08:54:46;101550.22;;;22.87;57.83
41250;BME280;26984;59.928;30.306;2023-08-21T08:57:14;101548.88;;;22.64;58.95
41250;BME280;26984;59.928;30.306;2023-08-21T08:59:42;101537.34;;;22.52;59.58
41250;BME280;26984;59.928;30.306;2023-08-21T09:02:10;101541.19;;;22.51;60.14
41250;BME280;26984;59.928;30.306;2023-08-21T09:04:38;101546.41;;;22.47;60.15
41250;BME280;26984;59.928;30.306;2023-08-21T09:07:08;101540.09;;;22.67;59.55
41250;BME280;26984;59.928;30.306;2023-08-21T09:09:39;101533.19;;;23.01;55.04
41250;BME280;26984;59.928;30.306;2023-08-21T09:12:10;101531.22;;;23.27;53.87
41250;BME280;26984;59.928;30.306;2023-08-21T09:14:39;101530.06;;;23.43;54.06
41250;BME280;26984;59.928;30.306;2023-08-21T09:17:07;101522.31;;;23.50;55.02
41250;BME280;26984;59.928;30.306;2023-08-21T09:19:35;101519.06;;;23.48;55.13
41250;BME280;26984;59.928;30.306;2023-08-21T09:22:12;101514.16;;;23.35;55.42
41250;BME280;26984;59.928;30.306;2023-08-21T09:24:41;101509.84;;;23.03;55.50
41250;BME280;26984;59.928;30.306;2023-08-21T09:27:26;101508.50;;;22.65;56.53
41250;BME280;26984;59.928;30.306;2023-08-21T09:29:54;101508.50;;;22.75;55.75
41250;BME280;26984;59.928;30.306;2023-08-21T09:32:22;101503.81;;;22.86;53.51
41250;BME280;26984;59.928;30.306;2023-08-21T09:34:50;101499.69;;;23.09;52.42
41250;BME280;26984;59.928;30.306;2023-08-21T09:37:19;101495.78;;;23.15;50.74
41250;BME280;26984;59.928;30.306;2023-08-21T09:39:48;101495.78;;;23.20;51.40
41250;BME280;26984;59.928;30.306;2023-08-21T09:42:18;101497.13;;;23.28;52.04
41250;BME280;26984;59.928;30.306;2023-08-21T09:44:48;101494.66;;;23.26;51.36
41250;BME280;26984;59.928;30.306;2023-08-21T09:47:19;101494.13;;;23.24;52.24
41250;BME280;26984;59.928;30.306;2023-08-21T09:49:48;101486.66;;;23.35;52.04
41250;BME280;26984;59.928;30.306;2023-08-21T09:52:16;101478.38;;;23.45;51.77
41250;BME280;26984;59.928;30.306;2023-08-21T09:55:05;101484.91;;;23.59;50.66
41250;BME280;26984;59.928;30.306;2023-08-21T09:57:33;101473.09;;;23.54;50.58
41250;BME280;26984;59.928;30.306;2023-08-21T10:00:03;101479.63;;;23.68;50.19
41250;BME280;26984;59.928;30.306;2023-08-21T10:02:42;101472.22;;;23.69;49.46
41250;BME280;26984;59.928;30.306;2023-08-21T10:05:16;101466.44;;;23.70;49.17
41250;BME280;26984;59.928;30.306;2023-08-21T10:07:44;101465.59;;;23.64;49.33
41250;BME280;26984;59.928;30.306;2023-08-21T10:10:16;101463.97;;;23.63;49.34
41250;BME280;26984;59.928;30.306;2023-08-21T10:12:44;101461.72;;;23.65;49.60
41250;BME280;26984;59.928;30.306;2023-08-21T10:15:13;101455.97;;;23.62;49.33
41250;BME280;26984;59.928;30.306;2023-08-21T10:17:44;101450.22;;;23.63;49.10
41250;BME280;26984;59.928;30.306;2023-08-21T10:20:12;101451.56;;;23.66;48.72
41250;BME280;26984;59.928;30.306;2023-08-21T10:22:44;101451.88;;;23.70;48.02
41250;BME280;26984;59.928;30.306;2023-08-21T10:25:19;101458.69;;;23.77;48.59
41250;BME280;26984;59.928;30.306;2023-08-21T10:27:50;101454.06;;;23.68;48.87
41250;BME280;26984;59.928;30.306;2023-08-21T10:30:21;101452.13;;;23.68;49.25
41250;BME280;26984;59.928;30.306;2023-08-21T10:32:50;101441.00;;;23.83;48.52
41250;BME280;26984;59.928;30.306;2023-08-21T10:35:19;101431.88;;;23.93;48.33
41250;BME280;26984;59.928;30.306;2023-08-21T10:38:14;101438.22;;;24.28;48.13
41250;BME280;26984;59.928;30.306;2023-08-21T10:41:06;101438.38;;;24.36;47.43
41250;BME280;26984;59.928;30.306;2023-08-21T10:43:37;101425.72;;;24.06;46.55
41250;BME280;26984;59.928;30.306;2023-08-21T10:46:05;101414.56;;;23.48;47.48
41250;BME280;26984;59.928;30.306;2023-08-21T10:48:34;101424.72;;;23.48;48.49
41250;BME280;26984;59.928;30.306;2023-08-21T10:51:04;101423.31;;;23.50;48.38
41250;BME280;26984;59.928;30.306;2023-08-21T10:53:32;101396.66;;;23.51;48.21
41250;BME280;26984;59.928;30.306;2023-08-21T10:56:01;101417.66;;;23.81;47.55
41250;BME280;26984;59.928;30.306;2023-08-21T10:58:38;101408.91;;;24.08;47.44
41250;BME280;26984;59.928;30.306;2023-08-21T11:01:06;101394.06;;;24.09;47.63
41250;BME280;26984;59.928;30.306;2023-08-21T11:03:34;101401.69;;;24.17;47.53
41250;BME280;26984;59.928;30.306;2023-08-21T11:06:02;101409.31;;;24.25;47.32
41250;BME280;26984;59.928;30.306;2023-08-21T11:08:31;101396.41;;;24.21;46.98
41250;BME280;26984;59.928;30.306;2023-08-21T11:11:00;101394.66;;;24.01;47.52
41250;BME280;26984;59.928;30.306;2023-08-21T11:13:28;101393.75;;;24.10;46.75
41250;BME280;26984;59.928;30.306;2023-08-21T11:16:01;101401.94;;;24.21;46.46
41250;BME280;26984;59.928;30.306;2023-08-21T11:18:30;101378.94;;;24.35;45.86
41250;BME280;26984;59.928;30.306;2023-08-21T11:21:06;101390.25;;;24.63;45.91
41250;BME280;26984;59.928;30.306;2023-08-21T11:23:36;101387.16;;;24.70;45.53
41250;BME280;26984;59.928;30.306;2023-08-21T11:26:05;101391.19;;;24.77;45.48
41250;BME280;26984;59.928;30.306;2023-08-21T11:28:33;101386.50;;;24.78;44.98
41250;BME280;26984;59.928;30.306;2023-08-21T11:31:04;101374.69;;;24.72;44.75
41250;BME280;26984;59.928;30.306;2023-08-21T11:33:32;101365.72;;;24.61;44.48
41250;BME280;26984;59.928;30.306;2023-08-21T11:36:00;101375.22;;;24.50;44.41
41250;BME280;26984;59.928;30.306;2023-08-21T11:38:28;101369.53;;;24.36;44.60
41250;BME280;26984;59.928;30.306;2023-08-21T11:40:57;101366.91;;;24.26;44.72
41250;BME280;26984;59.928;30.306;2023-08-21T11:43:35;101370.91;;;24.39;44.73
41250;BME280;26984;59.928;30.306;2023-08-21T11:46:05;101363.59;;;24.58;44.66
41250;BME280;26984;59.928;30.306;2023-08-21T11:48:33;101363.88;;;24.81;43.37
41250;BME280;26984;59.928;30.306;2023-08-21T11:51:03;101354.34;;;24.92;42.39
41250;BME280;26984;59.928;30.306;2023-08-21T11:53:32;101363.38;;;24.98;42.09
41250;BME280;26984;59.928;30.306;2023-08-21T11:56:01;101351.34;;;24.89;41.94
41250;BME280;26984;59.928;30.306;2023-08-21T11:58:29;101356.81;;;24.46;42.98
41250;BME280;26984;59.928;30.306;2023-08-21T12:01:02;101358.81;;;24.40;43.30
41250;BME280;26984;59.928;30.306;2023-08-21T12:03:35;101352.81;;;24.62;43.51
41250;BME280;26984;59.928;30.306;2023-08-21T12:06:06;101353.34;;;24.83;42.64
41250;BME280;26984;59.928;30.306;2023-08-21T12:08:34;101346.97;;;24.88;42.55
41250;BME280;26984;59.928;30.306;2023-08-21T12:11:02;101351.69;;;25.06;42.05
41250;BME280;26984;59.928;30.306;2023-08-21T12:13:30;101341.69;;;25.10;42.17
41250;BME280;26984;59.928;30.306;2023-08-21T12:15:57;101338.53;;;25.22;41.20
41250;BME280;26984;59.928;30.306;2023-08-21T12:18:25;101340.56;;;25.16;40.66
41250;BME280;26984;59.928;30.306;2023-08-21T12:20:55;101340.22;;;24.99;40.98
41250;BME280;26984;59.928;30.306;2023-08-21T12:23:23;101327.81;;;24.77;41.28
41250;BME280;26984;59.928;30.306;2023-08-21T12:25:51;101326.19;;;24.76;41.49
41250;BME280;26984;59.928;30.306;2023-08-21T12:28:19;101307.28;;;24.65;41.55
41250;BME280;26984;59.928;30.306;2023-08-21T12:30:47;101319.09;;;24.89;41.52
41250;BME280;26984;59.928;30.306;2023-08-21T12:33:15;101313.56;;;25.13;40.61
41250;BME280;26984;59.928;30.306;2023-08-21T12:35:43;101308.63;;;25.10;39.42
41250;BME280;26984;59.928;30.306;2023-08-21T12:38:12;101305.38;;;25.27;39.17
41250;BME280;26984;59.928;30.306;2023-08-21T12:40:40;101310.00;;;25.31;39.38
41250;BME280;26984;59.928;30.306;2023-08-21T12:43:08;101304.47;;;25.31;39.67
41250;BME280;26984;59.928;30.306;2023-08-21T12:45:36;101288.25;;;25.30;40.29
41250;BME280;26984;59.928;30.306;2023-08-21T12:48:04;101305.75;;;25.20;41.59